Time;durP1;ratioP1;P1;durP2;ratioP2;P2;SDS_P1;SDS_P2;PMS_P1;PMS_P2;Temp;Humidity;BMP_temperature;BMP_pressure;BME280_temperature;BME280_humidity;BME280_pressure;Samples;Min_cycle;Max_cycle;Signal;HPM_P1;HPM_P2
2022/07/10 00:00:10;;;;;;;3.27;0.60;;;;;;;14.94;75.76;101508.66;5073969;28;20469;-70
2022/07/10 00:02:39;;;;;;;1.03;0.50;;;;;;;14.96;75.89;101512.69;5073881;28;20441;-70
2022/07/10 00:05:07;;;;;;;1.10;0.67;;;;;;;15.00;75.63;101515.59;5073833;28;20532;-70
2022/07/10 00:07:34;;;;;;;0.80;0.53;;;;;;;14.98;76.05;101504.19;5073436;28;20580;-70
2022/07/10 00:10:01;;;;;;;0.80;0.47;;;;;;;14.99;75.27;101508.53;5073665;28;20494;-71
2022/07/10 00:12:28;;;;;;;3.77;0.90;;;;;;;15.00;75.43;101513.69;5073661;28;20437;-70
2022/07/10 00:14:54;;;;;;;4.47;0.67;;;;;;;15.08;74.73;101503.97;5073741;28;20529;-70
2022/07/10 00:17:21;;;;;;;2.00;0.70;;;;;;;15.10;74.92;101508.00;5073588;28;20536;-70
2022/07/10 00:19:49;;;;;;;0.70;0.50;;;;;;;15.12;74.68;101504.97;5073630;28;20453;-70
2022/07/10 00:22:16;;;;;;;1.77;0.70;;;;;;;15.19;74.26;101516.25;5073071;28;20488;-70
2022/07/10 00:24:42;;;;;;;1.63;0.63;;;;;;;15.14;74.57;101505.47;5073580;28;20491;-71
2022/07/10 00:27:09;;;;;;;3.30;0.83;;;;;;;15.09;74.14;101505.56;5073280;28;20476;-72
2022/07/10 00:29:35;;;;;;;2.27;0.90;;;;;;;15.11;75.10;101503.34;5073487;28;20469;-72
2022/07/10 00:32:02;;;;;;;1.20;0.83;;;;;;;15.16;74.74;101495.03;5073172;28;20532;-71
2022/07/10 00:34:29;;;;;;;1.10;0.80;;;;;;;15.21;74.19;101505.81;5073442;28;20537;-70
2022/07/10 00:36:57;;;;;;;0.70;0.40;;;;;;;15.18;73.86;101498.25;5073087;28;20528;-70
2022/07/10 00:39:23;;;;;;;5.90;0.70;;;;;;;15.15;73.76;101501.63;5073408;28;20520;-71
2022/07/10 00:41:51;;;;;;;1.83;1.00;;;;;;;15.08;74.54;101498.50;5073084;28;20473;-71
2022/07/10 00:44:17;;;;;;;1.37;0.73;;;;;;;15.04;74.45;101498.31;5073345;28;20445;-71
2022/07/10 00:46:44;;;;;;;1.20;0.63;;;;;;;15.11;74.37;101486.97;5073260;28;20524;-69
2022/07/10 00:49:10;;;;;;;1.10;0.70;;;;;;;15.17;74.10;101490.38;5072773;28;20485;-68
2022/07/10 00:51:38;;;;;;;2.37;0.60;;;;;;;15.14;75.46;101486.38;5073474;28;20532;-68
2022/07/10 00:54:06;;;;;;;3.43;0.60;;;;;;;15.20;73.98;101481.59;5073239;28;20879;-68
2022/07/10 00:56:33;;;;;;;2.20;0.80;;;;;;;15.19;74.44;101478.06;5072857;28;20520;-69
2022/07/10 00:59:01;;;;;;;1.73;0.73;;;;;;;15.23;74.24;101484.50;5072801;28;20544;-68
2022/07/10 01:01:27;;;;;;;0.97;0.67;;;;;;;15.21;73.88;101475.00;5072796;28;20824;-70
2022/07/10 01:03:54;;;;;;;2.03;0.80;;;;;;;15.17;73.66;101468.53;5073149;28;20532;-69
2022/07/10 01:06:20;;;;;;;2.30;0.60;;;;;;;15.13;73.78;101468.34;5073085;28;20532;-68
2022/07/10 01:08:47;;;;;;;0.70;0.40;;;;;;;15.15;73.65;101474.31;5072917;28;20481;-69
2022/07/10 01:11:16;;;;;;;0.90;0.50;;;;;;;15.19;73.77;101478.06;5072629;28;20943;-69
2022/07/10 01:13:43;;;;;;;0.80;0.47;;;;;;;15.12;74.09;101459.38;5073098;28;20467;-69
2022/07/10 01:16:09;;;;;;;6.33;0.70;;;;;;;15.06;74.69;101457.88;5072677;28;20954;-69
2022/07/10 01:18:36;;;;;;;0.97;0.50;;;;;;;15.11;74.37;101454.22;5072841;28;20540;-69
2022/07/10 01:21:04;;;;;;;0.80;0.70;;;;;;;15.16;74.22;101458.75;5072962;28;20545;-69
2022/07/10 01:23:31;;;;;;;15.17;1.50;;;;;;;15.18;74.04;101461.97;5072474;28;20528;-69
2022/07/10 01:25:58;;;;;;;2.33;0.87;;;;;;;15.08;74.18;101460.28;5072816;28;20532;-68
2022/07/10 01:28:26;;;;;;;0.60;0.40;;;;;;;15.12;74.14;101467.56;5072296;28;20936;-70
2022/07/10 01:30:56;;;;;;;1.73;0.60;;;;;;;15.11;74.02;101465.16;5072873;28;20437;-68
2022/07/10 01:33:22;;;;;;;1.23;0.83;;;;;;;15.11;74.19;101455.03;5072805;28;20502;-69
2022/07/10 01:35:49;;;;;;;0.70;0.43;;;;;;;15.07;75.22;101461.41;5075385;28;20440;-68
2022/07/10 01:38:17;;;;;;;5.03;0.60;;;;;;;15.04;75.28;101442.94;5076630;28;20545;-70
2022/07/10 01:40:43;;;;;;;0.87;0.57;;;;;;;15.02;75.02;101437.00;5076334;28;20954;-70
2022/07/10 01:43:10;;;;;;;1.97;0.50;;;;;;;15.05;75.11;101445.38;5076596;28;20440;-69
2022/07/10 01:45:37;;;;;;;0.70;0.47;;;;;;;15.03;75.00;101435.88;5076568;28;20449;-70
2022/07/10 01:48:03;;;;;;;1.33;0.70;;;;;;;15.01;75.46;101449.84;5076396;28;20495;-69
2022/07/10 01:50:31;;;;;;;1.57;0.80;;;;;;;15.01;75.70;101446.28;5076173;28;20484;-69
2022/07/10 01:52:57;;;;;;;1.03;0.60;;;;;;;14.96;76.22;101452.66;5076023;28;20946;-69
2022/07/10 01:55:25;;;;;;;0.97;0.53;;;;;;;14.89;76.57;101449.56;5076321;28;20528;-69
2022/07/10 01:57:52;;;;;;;0.60;0.40;;;;;;;14.90;76.62;101453.91;5075962;28;20552;-69
2022/07/10 02:00:19;;;;;;;0.90;0.60;;;;;;;14.88;77.10;101461.59;5076262;28;20570;-68
2022/07/10 02:04:40;;;;;;;1.27;0.57;;;;;;;14.81;77.93;101458.47;5076227;28;20452;-69
2022/07/10 02:05:31;;;;;;;0.70;0.50;;;;;;;14.83;78.93;101454.34;5075744;28;20494;-69
2022/07/10 02:07:58;;;;;;;1.57;0.60;;;;;;;14.82;79.04;101463.63;5076038;28;20461;-69
2022/07/10 02:10:26;;;;;;;1.90;0.90;;;;;;;14.82;78.80;101449.19;5076129;28;20252;-69
2022/07/10 02:12:53;;;;;;;1.37;0.37;;;;;;;14.86;78.74;101458.34;5076251;28;20445;-69
2022/07/10 02:15:19;;;;;;;1.03;0.60;;;;;;;14.78;78.95;101450.91;5075743;28;20532;-69
2022/07/10 02:17:46;;;;;;;1.00;0.60;;;;;;;14.74;79.38;101455.34;5075618;28;20869;-69
2022/07/10 02:20:13;;;;;;;2.20;0.47;;;;;;;14.83;79.11;101448.88;5075894;28;20540;-69
2022/07/10 02:22:39;;;;;;;1.27;0.53;;;;;;;14.80;79.40;101440.50;5075600;28;21015;-69
2022/07/10 02:25:07;;;;;;;1.23;0.70;;;;;;;14.77;78.83;101450.09;5076126;28;20532;-69
2022/07/10 02:27:35;;;;;;;0.70;0.43;;;;;;;14.75;78.80;101446.88;5075547;28;20518;-70
2022/07/10 02:30:01;;;;;;;1.23;0.47;;;;;;;14.76;78.69;101447.69;5075426;28;20568;-69
2022/07/10 02:32:28;;;;;;;3.17;0.60;;;;;;;14.69;79.15;101447.28;5075711;28;20520;-69
2022/07/10 02:34:54;;;;;;;1.83;0.80;;;;;;;14.63;79.30;101446.63;5075606;28;20441;-70
2022/07/10 02:37:21;;;;;;;1.87;1.07;;;;;;;14.66;79.00;101445.22;5075551;28;20564;-69
2022/07/10 02:39:48;;;;;;;2.97;0.50;;;;;;;14.60;79.31;101455.41;5075568;28;20536;-70
2022/07/10 02:42:14;;;;;;;1.57;0.83;;;;;;;14.62;79.19;101445.00;5075225;28;20488;-69
2022/07/10 02:44:42;;;;;;;2.10;0.70;;;;;;;14.61;79.35;101446.13;5075489;28;20477;-69
2022/07/10 02:47:09;;;;;;;1.50;0.50;;;;;;;14.63;79.25;101443.88;5074592;28;20536;-69
2022/07/10 02:49:35;;;;;;;1.23;0.40;;;;;;;14.57;80.27;101447.84;5074978;28;21010;-69
2022/07/10 02:52:02;;;;;;;1.57;0.63;;;;;;;14.60;79.86;101434.38;5075290;28;20527;-69
2022/07/10 02:54:28;;;;;;;0.87;0.50;;;;;;;14.64;79.91;101437.31;5075238;28;20874;-69
2022/07/10 02:56:55;;;;;;;2.43;0.60;;;;;;;14.62;79.97;101442.28;5075107;28;20540;-69
2022/07/10 02:59:22;;;;;;;0.60;0.33;;;;;;;14.63;79.83;101441.16;5075236;28;20441;-69
2022/07/10 03:01:50;;;;;;;4.70;0.67;;;;;;;14.58;80.10;101442.09;5075119;28;20451;-69
2022/07/10 03:04:16;;;;;;;1.10;0.70;;;;;;;14.49;80.46;101438.47;5075014;28;20528;-70
2022/07/10 03:06:43;;;;;;;0.60;0.40;;;;;;;14.48;81.35;101436.03;5075022;28;20811;-71
2022/07/10 03:09:10;;;;;;;1.33;0.53;;;;;;;14.52;80.75;101437.03;5074553;28;20492;-71
2022/07/10 03:11:36;;;;;;;3.73;1.07;;;;;;;14.50;81.03;101440.06;5074986;28;20536;-71
2022/07/10 03:14:03;;;;;;;1.07;0.47;;;;;;;14.45;81.29;101442.88;5074635;28;20520;-71
2022/07/10 03:16:30;;;;;;;0.67;0.43;;;;;;;14.45;81.39;101440.16;5074873;28;20824;-70
2022/07/10 03:18:58;;;;;;;1.60;0.63;;;;;;;14.38;82.36;101440.56;5074785;28;20839;-71
2022/07/10 03:21:24;;;;;;;1.27;0.43;;;;;;;14.38;82.19;101434.31;5074814;28;20524;-72
2022/07/10 03:23:51;;;;;;;0.80;0.50;;;;;;;14.38;82.45;101437.03;5074670;28;20488;-69
2022/07/10 03:26:18;;;;;;;2.70;0.97;;;;;;;14.38;82.47;101434.31;5074698;28;20452;-69
2022/07/10 03:28:44;;;;;;;1.23;0.50;;;;;;;14.34;83.25;101430.56;5074079;28;20934;-68
2022/07/10 03:31:11;;;;;;;2.00;0.40;;;;;;;14.27;83.57;101431.00;5074548;28;20528;-68
2022/07/10 03:33:38;;;;;;;1.37;0.50;;;;;;;14.34;83.68;101427.84;5074584;28;20532;-68
2022/07/10 03:36:07;;;;;;;0.80;0.50;;;;;;;14.37;83.41;101430.78;5074523;28;20441;-68
2022/07/10 03:38:33;;;;;;;0.77;0.50;;;;;;;14.31;83.76;101429.28;5074317;28;20540;-68
2022/07/10 03:41:00;;;;;;;1.23;0.53;;;;;;;14.27;84.49;101430.19;5074057;28;20987;-69
2022/07/10 03:43:26;;;;;;;2.37;0.90;;;;;;;14.34;83.95;101434.13;5074309;28;20516;-68
2022/07/10 03:45:53;;;;;;;3.13;0.70;;;;;;;14.36;84.01;101431.91;5074315;28;20799;-69
2022/07/10 03:48:19;;;;;;;1.23;0.60;;;;;;;14.39;83.85;101422.31;5073744;28;20465;-69
2022/07/10 03:50:50;;;;;;;1.10;0.50;;;;;;;14.37;84.07;101417.16;5074198;28;20473;-68
2022/07/10 03:53:18;;;;;;;1.37;0.57;;;;;;;14.32;84.34;101425.44;5074130;28;20436;-68
2022/07/10 03:55:45;;;;;;;1.03;0.60;;;;;;;14.27;85.04;101422.81;5074076;28;20541;-69
2022/07/10 03:58:11;;;;;;;0.70;0.50;;;;;;;14.29;85.21;101431.50;5073333;28;20548;-69
2022/07/10 04:00:38;;;;;;;0.60;0.40;;;;;;;14.33;85.10;101420.78;5074030;28;20516;-68
2022/07/10 04:03:06;;;;;;;4.63;0.90;;;;;;;14.36;84.94;101418.28;5073978;28;20226;-69
2022/07/10 04:05:34;;;;;;;5.50;1.03;;;;;;;14.40;84.48;101418.47;5073554;28;20445;-69
2022/07/10 04:08:01;;;;;;;4.00;0.63;;;;;;;14.44;84.55;101426.84;5073708;28;20553;-68
2022/07/10 04:10:31;;;;;;;0.90;0.57;;;;;;;14.37;84.84;101425.31;5073686;28;20477;-68
2022/07/10 04:12:58;;;;;;;0.97;0.60;;;;;;;14.34;85.04;101425.13;5073408;28;21183;-69
2022/07/10 04:15:24;;;;;;;2.27;0.73;;;;;;;14.36;85.41;101423.72;5073666;28;20528;-69
2022/07/10 04:17:51;;;;;;;0.73;0.50;;;;;;;14.39;85.08;101425.84;5073561;28;20998;-72
2022/07/10 04:20:19;;;;;;;0.83;0.57;;;;;;;14.45;84.74;101420.28;5073299;28;20957;-74
2022/07/10 04:22:46;;;;;;;5.07;0.87;;;;;;;14.52;84.20;101423.41;5073571;28;20445;-70
2022/07/10 04:25:13;;;;;;;2.40;0.70;;;;;;;14.46;85.04;101414.50;5073462;28;20448;-70
2022/07/10 04:27:41;;;;;;;0.70;0.50;;;;;;;14.45;84.67;101417.56;5073114;28;20567;-69
2022/07/10 04:30:08;;;;;;;2.10;0.57;;;;;;;14.45;84.58;101420.28;5073599;28;20506;-68
2022/07/10 04:32:35;;;;;;;4.53;0.60;;;;;;;14.47;84.87;101418.84;5073419;28;20540;-69
2022/07/10 04:35:01;;;;;;;1.57;0.67;;;;;;;14.48;84.81;101414.22;5073042;28;20947;-69
2022/07/10 04:37:29;;;;;;;1.63;0.50;;;;;;;14.52;84.85;101415.22;5073223;28;20556;-70
2022/07/10 04:39:55;;;;;;;8.20;1.30;;;;;;;14.55;84.54;101418.16;5072979;28;20439;-70
2022/07/10 04:42:22;;;;;;;0.90;0.50;;;;;;;14.54;84.36;101413.81;5073275;28;20433;-70
2022/07/10 04:44:50;;;;;;;2.50;0.83;;;;;;;14.60;84.17;101411.78;5073248;28;20528;-70
2022/07/10 04:47:17;;;;;;;4.43;0.53;;;;;;;14.59;84.59;101419.16;5073429;28;20536;-69
2022/07/10 04:49:43;;;;;;;0.60;0.40;;;;;;;14.59;84.67;101426.53;5072841;28;20534;-69
2022/07/10 04:52:10;;;;;;;1.20;0.60;;;;;;;14.59;84.84;101419.16;5073309;28;20441;-69
2022/07/10 04:54:37;;;;;;;1.10;0.90;;;;;;;14.63;85.34;101411.16;5073037;28;20821;-69
2022/07/10 04:57:03;;;;;;;2.00;0.60;;;;;;;14.71;85.19;101412.38;5072947;28;20437;-68
2022/07/10 04:59:30;;;;;;;1.03;0.67;;;;;;;14.67;84.86;101414.88;5073016;28;20521;-69
2022/07/10 05:01:58;;;;;;;4.50;0.90;;;;;;;14.72;84.19;101417.50;5073088;28;20528;-70
2022/07/10 05:04:25;;;;;;;0.93;0.60;;;;;;;14.77;84.42;101417.38;5073056;28;20857;-69
2022/07/10 05:06:51;;;;;;;6.10;0.50;;;;;;;14.84;84.15;101416.97;5072599;28;20635;-70
2022/07/10 05:09:19;;;;;;;1.43;0.40;;;;;;;14.80;83.26;101419.50;5101216;22;20654;-67
2022/07/10 05:11:46;;;;;;;2.67;0.87;;;;;;;14.74;84.03;101412.56;5076937;28;21008;-66
2022/07/10 05:14:13;;;;;;;2.97;0.60;;;;;;;14.84;84.10;101403.31;5077234;28;20449;-66
2022/07/10 05:16:39;;;;;;;1.23;0.60;;;;;;;14.89;83.76;101412.19;5077230;28;20532;-66
2022/07/10 05:19:07;;;;;;;0.93;0.50;;;;;;;14.87;85.16;101405.41;5076931;28;20492;-67
2022/07/10 05:21:34;;;;;;;1.23;0.80;;;;;;;14.93;83.82;101414.28;5076884;28;20931;-66
2022/07/10 05:24:01;;;;;;;5.17;0.70;;;;;;;14.99;83.41;101407.59;5076905;28;20962;-66
2022/07/10 05:26:27;;;;;;;0.80;0.60;;;;;;;15.00;83.41;101401.00;5077119;28;20827;-66
2022/07/10 05:28:54;;;;;;;1.03;0.50;;;;;;;15.01;83.84;101406.19;5076851;28;20469;-66
2022/07/10 05:31:20;;;;;;;1.60;0.77;;;;;;;15.10;83.70;101407.03;5076998;28;20528;-66
2022/07/10 05:33:47;;;;;;;1.23;0.93;;;;;;;15.20;82.27;101408.69;5076997;28;20467;-67
2022/07/10 05:36:15;;;;;;;2.70;0.90;;;;;;;15.25;82.13;101410.50;5076826;28;20448;-69
2022/07/10 05:38:41;;;;;;;1.07;0.70;;;;;;;15.23;82.20;101410.81;5076460;28;20461;-70
2022/07/10 05:41:08;;;;;;;5.73;0.90;;;;;;;15.24;81.61;101409.69;5076829;28;20437;-68
2022/07/10 05:43:35;;;;;;;3.47;1.10;;;;;;;15.23;82.61;101405.34;5076723;28;20516;-68
2022/07/10 05:46:02;;;;;;;1.37;0.90;;;;;;;15.32;82.25;101406.22;5076744;28;20491;-68
2022/07/10 05:48:28;;;;;;;2.00;0.83;;;;;;;15.36;81.44;101409.94;5076567;28;20489;-68
2022/07/10 05:50:55;;;;;;;1.17;0.60;;;;;;;15.36;81.62;101411.81;5076477;28;20560;-68
2022/07/10 05:53:23;;;;;;;0.90;0.40;;;;;;;15.37;80.29;101402.53;5076515;28;20443;-68
2022/07/10 05:55:50;;;;;;;1.17;0.73;;;;;;;15.25;81.36;101410.50;5076385;28;20452;-69
2022/07/10 05:58:17;;;;;;;3.13;0.70;;;;;;;15.30;81.37;101408.44;5076358;28;20528;-69
2022/07/10 06:00:45;;;;;;;1.03;0.63;;;;;;;15.35;80.91;101411.03;5076122;28;20527;-68
2022/07/10 06:03:12;;;;;;;4.33;0.80;;;;;;;15.38;80.97;101421.31;5076042;28;20448;-68
2022/07/10 06:05:39;;;;;;;1.20;0.77;;;;;;;15.45;80.41;101420.06;5076366;28;20441;-69
2022/07/10 06:08:06;;;;;;;7.30;0.77;;;;;;;15.46;80.83;101417.03;5076241;28;20476;-68
2022/07/10 06:10:34;;;;;;;2.30;0.63;;;;;;;15.32;81.05;101422.59;5076058;28;20556;-69
2022/07/10 06:13:00;;;;;;;1.90;0.53;;;;;;;15.37;80.20;101418.91;5076274;28;20875;-69
2022/07/10 06:15:27;;;;;;;1.93;0.70;;;;;;;15.23;80.40;101407.25;5076336;28;20529;-69
2022/07/10 06:17:57;;;;;;;0.90;0.57;;;;;;;15.24;80.71;101419.81;5075793;28;20499;-68
2022/07/10 06:20:24;;;;;;;1.50;0.60;;;;;;;15.32;80.20;101417.13;5074834;28;20476;-67
2022/07/10 06:22:50;;;;;;;1.20;0.80;;;;;;;15.47;79.98;101413.19;5075840;28;20524;-69
2022/07/10 06:25:17;;;;;;;1.37;0.60;;;;;;;15.48;78.67;101417.50;5075932;28;20879;-66
2022/07/10 06:27:45;;;;;;;2.60;0.90;;;;;;;15.53;78.79;101409.19;5075824;28;20473;-66
2022/07/10 06:30:12;;;;;;;1.20;0.57;;;;;;;15.51;79.25;101407.91;5075824;28;20516;-67
2022/07/10 06:32:39;;;;;;;2.03;0.80;;;;;;;15.55;78.79;101409.69;5075830;28;20528;-67
2022/07/10 06:35:07;;;;;;;2.20;1.03;;;;;;;15.73;78.50;101412.53;5075761;28;20460;-66
2022/07/10 06:37:34;;;;;;;2.10;0.80;;;;;;;15.91;78.26;101407.94;5075684;28;20503;-66
2022/07/10 06:40:00;;;;;;;1.23;0.90;;;;;;;15.97;77.81;101423.84;5075666;28;20453;-65
2022/07/10 06:42:27;;;;;;;5.20;1.50;;;;;;;16.03;77.98;101408.13;5075221;28;21046;-66
2022/07/10 06:44:55;;;;;;;1.00;0.60;;;;;;;16.06;76.66;101415.69;5075261;28;20448;-66
2022/07/10 06:50:08;;;;;;;3.93;0.60;;;;;;;16.15;73.86;101408.31;5075348;28;21091;-67
2022/07/10 06:52:35;;;;;;;1.73;1.00;;;;;;;16.06;74.83;101413.75;5075364;28;20531;-66
2022/07/10 06:55:02;;;;;;;6.80;0.67;;;;;;;16.10;75.88;101422.13;5075160;28;20952;-66
2022/07/10 06:57:29;;;;;;;0.87;0.60;;;;;;;16.21;74.50;101417.97;5075367;28;20460;-65
2022/07/10 06:59:57;;;;;;;3.20;1.10;;;;;;;16.13;74.66;101421.50;5075195;28;20532;-66
2022/07/10 07:02:23;;;;;;;1.07;0.60;;;;;;;16.06;73.86;101423.88;5075189;28;20447;-65
2022/07/10 07:04:50;;;;;;;2.10;0.90;;;;;;;16.02;74.07;101422.91;5074933;28;20981;-66
2022/07/10 07:07:17;;;;;;;0.80;0.53;;;;;;;15.88;74.42;101421.09;5074897;28;20536;-65
2022/07/10 07:09:44;;;;;;;1.00;0.60;;;;;;;15.79;75.18;101427.66;5074626;28;20584;-67
2022/07/10 07:12:11;;;;;;;2.30;0.73;;;;;;;15.74;74.57;101414.13;5075123;28;20449;-67
2022/07/10 07:14:38;;;;;;;1.70;0.60;;;;;;;15.64;74.21;101415.22;5074701;28;20986;-66
2022/07/10 07:17:08;;;;;;;4.50;1.10;;;;;;;15.57;75.43;101403.91;5075300;28;20529;-68
2022/07/10 07:25:00;;;;;;;1.10;0.50;;;;;;;15.66;74.84;101404.78;5074778;28;20432;-68
2022/07/10 07:27:27;;;;;;;5.43;0.77;;;;;;;15.64;73.79;101401.56;5074534;28;20927;-67
2022/07/10 07:29:53;;;;;;;2.60;0.80;;;;;;;15.84;71.25;101392.00;5074721;28;20901;-70
2022/07/10 07:32:21;;;;;;;1.73;0.70;;;;;;;16.07;69.30;101388.06;5074745;28;20453;-70
2022/07/10 07:34:48;;;;;;;1.30;0.60;;;;;;;16.38;63.08;101389.88;5075078;28;20884;-71
2022/07/10 07:37:14;;;;;;;3.23;0.87;;;;;;;16.67;59.46;101391.97;5074501;28;20536;-71
2022/07/10 07:39:41;;;;;;;3.33;0.93;;;;;;;16.79;60.06;101403.09;5074686;28;20468;-69
2022/07/10 07:42:07;;;;;;;2.20;0.80;;;;;;;16.95;58.46;101391.63;5074611;28;20441;-68
2022/07/10 07:44:34;;;;;;;2.77;0.93;;;;;;;17.20;59.01;101390.78;5074381;28;20468;-68
2022/07/10 07:47:01;;;;;;;4.13;1.03;;;;;;;17.30;58.02;101398.66;5074650;28;20533;-68
2022/07/10 07:49:29;;;;;;;2.60;1.00;;;;;;;17.34;59.15;101398.81;5074497;28;20476;-68
2022/07/10 07:51:55;;;;;;;0.70;0.40;;;;;;;17.39;59.21;101404.09;5074391;28;20565;-68
2022/07/10 07:54:22;;;;;;;0.90;0.80;;;;;;;17.30;60.85;101398.66;5074284;28;20532;-68
2022/07/10 07:56:48;;;;;;;4.67;0.90;;;;;;;17.26;61.69;101407.84;5074294;28;20524;-68
2022/07/10 07:59:15;;;;;;;1.10;0.60;;;;;;;17.20;62.38;101411.91;5074163;28;20465;-68
2022/07/10 08:01:41;;;;;;;0.70;0.47;;;;;;;17.09;63.35;101411.44;5074091;28;20851;-68
2022/07/10 08:04:09;;;;;;;2.40;0.67;;;;;;;16.90;64.39;101412.56;5074046;28;20536;-67
2022/07/10 08:06:37;;;;;;;2.07;0.83;;;;;;;17.08;63.31;101412.56;5074434;28;20445;-68
2022/07/10 08:09:03;;;;;;;1.73;0.70;;;;;;;17.10;63.01;101408.38;5073561;28;20485;-69
2022/07/10 08:11:31;;;;;;;2.83;1.10;;;;;;;17.13;63.69;101398.69;5073573;28;20473;-69
2022/07/10 08:13:58;;;;;;;0.70;0.50;;;;;;;17.10;63.03;101410.31;5073922;28;20449;-68
2022/07/10 08:16:24;;;;;;;2.93;0.77;;;;;;;17.08;62.91;101405.13;5073814;28;20484;-68
2022/07/10 08:18:51;;;;;;;4.70;1.00;;;;;;;17.06;62.29;101418.34;5073562;28;20552;-67
2022/07/10 08:21:17;;;;;;;1.43;0.90;;;;;;;17.01;63.09;101420.47;5073750;28;20433;-68
2022/07/10 08:23:46;;;;;;;1.30;0.60;;;;;;;17.12;63.21;101421.72;5073824;28;20445;-67
2022/07/10 08:26:13;;;;;;;0.80;0.60;;;;;;;17.07;63.71;101413.69;5073906;28;20441;-69
2022/07/10 08:28:39;;;;;;;1.60;0.73;;;;;;;16.99;64.77;101422.72;5073706;28;20489;-69
2022/07/10 08:31:06;;;;;;;2.30;0.57;;;;;;;17.00;64.88;101418.84;5073460;28;21024;-68
2022/07/10 08:33:32;;;;;;;0.93;0.80;;;;;;;17.06;64.74;101415.63;5073611;28;20444;-68
2022/07/10 08:36:00;;;;;;;1.17;0.87;;;;;;;17.15;64.96;101427.38;5073996;28;20532;-68
2022/07/10 08:38:26;;;;;;;0.67;0.53;;;;;;;17.22;64.41;101424.16;5073394;28;20469;-66
2022/07/10 08:40:57;;;;;;;3.23;0.63;;;;;;;17.20;62.81;101423.66;5073425;28;20559;-67
2022/07/10 08:43:24;;;;;;;1.20;0.77;;;;;;;17.25;63.60;101420.72;5073018;28;20777;-69
2022/07/10 08:45:53;;;;;;;1.30;0.60;;;;;;;17.18;62.29;101419.63;5073382;28;20476;-68
2022/07/10 08:48:23;;;;;;;1.20;0.70;;;;;;;17.35;62.41;101414.09;5073211;28;20468;-67
2022/07/10 08:50:53;;;;;;;3.37;0.77;;;;;;;17.38;61.44;101414.25;5073419;28;20568;-68
2022/07/10 08:53:27;;;;;;;2.30;1.17;;;;;;;17.59;60.77;101413.56;5073226;28;20457;-68
2022/07/10 08:55:55;;;;;;;0.93;0.50;;;;;;;17.78;59.12;101421.41;5073108;28;20517;-67
2022/07/10 08:58:23;;;;;;;1.20;0.60;;;;;;;17.85;58.88;101427.19;5073144;28;20465;-68
2022/07/10 09:00:50;;;;;;;1.20;0.80;;;;;;;17.80;57.62;101419.16;5073055;28;20537;-67
2022/07/10 09:03:16;;;;;;;3.37;0.70;;;;;;;17.79;59.27;101423.81;5072810;28;20441;-68
2022/07/10 09:05:43;;;;;;;9.70;1.43;;;;;;;17.77;58.77;101420.59;5073184;28;20528;-65
2022/07/10 09:08:23;;;;;;;3.20;0.73;;;;;;;17.88;60.25;101427.34;5072922;28;20477;-68
2022/07/10 09:10:50;;;;;;;11.23;1.33;;;;;;;17.87;58.44;101419.44;5073288;28;20461;-67
2022/07/10 09:13:18;;;;;;;1.63;0.73;;;;;;;17.83;59.23;101424.75;5073213;28;20453;-69
2022/07/10 09:15:49;;;;;;;1.30;0.90;;;;;;;17.97;57.55;101432.75;5073081;28;20437;-68
2022/07/10 09:18:20;;;;;;;2.63;1.00;;;;;;;18.12;58.22;101426.72;5072843;28;20556;-68
2022/07/10 09:20:47;;;;;;;1.00;0.67;;;;;;;18.33;58.48;101425.97;5072777;28;20424;-68
2022/07/10 09:23:18;;;;;;;3.93;0.60;;;;;;;18.50;56.92;101416.78;5073275;28;20437;-68
2022/07/10 09:25:47;;;;;;;4.30;0.80;;;;;;;18.44;55.73;101418.13;5072774;28;20871;-67
2022/07/10 09:28:16;;;;;;;1.30;0.97;;;;;;;18.39;56.24;101425.41;5072760;28;20526;-67
2022/07/10 09:30:45;;;;;;;2.90;1.07;;;;;;;18.27;56.17;101422.59;5072800;28;20536;-67
2022/07/10 09:33:29;;;;;;;0.90;0.50;;;;;;;18.27;56.62;101430.00;5072826;28;20446;-67
2022/07/10 09:36:07;;;;;;;1.97;0.67;;;;;;;18.36;57.41;101428.00;5072599;28;20426;-67
2022/07/10 09:38:53;;;;;;;2.80;0.70;;;;;;;18.20;57.83;101427.00;5072685;28;20465;-67
2022/07/10 09:41:22;;;;;;;3.40;0.80;;;;;;;18.15;55.23;101423.31;5071886;28;20541;-68
2022/07/10 09:43:50;;;;;;;3.37;0.93;;;;;;;18.05;54.89;101431.09;5073260;28;20468;-67
2022/07/10 09:46:21;;;;;;;3.37;0.90;;;;;;;18.07;55.39;101428.84;5072885;28;20872;-67
2022/07/10 09:48:47;;;;;;;1.03;0.63;;;;;;;18.23;56.06;101420.84;5072586;28;20888;-68
2022/07/10 09:51:14;;;;;;;1.10;0.53;;;;;;;18.41;56.02;101427.81;5072394;28;21056;-68
2022/07/10 09:53:42;;;;;;;1.97;0.70;;;;;;;18.61;54.22;101423.50;5072677;28;20532;-68
2022/07/10 09:56:10;;;;;;;5.00;0.90;;;;;;;18.64;53.20;101412.66;5074343;28;20452;-68
2022/07/10 09:58:38;;;;;;;1.73;0.60;;;;;;;18.51;53.72;101413.72;5076346;28;20461;-66
2022/07/10 10:01:06;;;;;;;1.53;0.80;;;;;;;18.56;53.83;101423.69;5076294;28;20468;-67
2022/07/10 10:03:39;;;;;;;2.50;0.70;;;;;;;18.45;53.92;101423.28;5076490;28;20872;-68
2022/07/10 10:06:11;;;;;;;1.93;0.60;;;;;;;18.58;54.18;101426.91;5076524;28;20501;-66
2022/07/10 10:08:48;;;;;;;0.60;0.30;;;;;;;18.56;52.93;101431.94;5075906;28;20917;-65
2022/07/10 10:11:19;;;;;;;1.07;0.50;;;;;;;18.51;53.45;101429.38;5076045;28;20906;-64
2022/07/10 10:13:50;;;;;;;2.10;0.50;;;;;;;18.59;54.17;101425.75;5076004;28;20517;-66
2022/07/10 10:16:20;;;;;;;1.10;0.73;;;;;;;18.65;51.66;101429.91;5076108;28;20425;-66
2022/07/10 10:21:34;;;;;;;4.87;0.80;;;;;;;18.88;51.98;101431.19;5076076;28;20899;-66
2022/07/10 10:24:02;;;;;;;1.00;0.53;;;;;;;18.97;51.87;101438.56;5075761;28;20481;-66
2022/07/10 10:26:28;;;;;;;2.50;0.77;;;;;;;18.87;51.47;101442.53;5076038;28;20494;-65
2022/07/10 10:28:59;;;;;;;1.77;0.60;;;;;;;18.61;52.37;101431.72;5075636;28;20556;-66
2022/07/10 10:31:27;;;;;;;0.93;0.37;;;;;;;18.78;53.13;101447.28;5075405;28;20982;-66
2022/07/10 10:34:00;;;;;;;1.43;0.70;;;;;;;18.96;53.69;101442.44;5075471;28;20683;-66
2022/07/10 10:36:47;;;;;;;5.30;0.60;;;;;;;19.04;53.49;101441.56;5075575;28;20449;-64
2022/07/10 10:39:16;;;;;;;1.20;0.60;;;;;;;18.83;52.22;101436.91;5075531;28;20461;-64
2022/07/10 10:41:48;;;;;;;1.17;0.77;;;;;;;18.84;52.71;101443.19;5075248;28;20437;-67
2022/07/10 10:44:35;;;;;;;0.90;0.53;;;;;;;18.88;53.34;101444.94;5075862;28;20517;-67
2022/07/10 10:47:06;;;;;;;1.73;0.80;;;;;;;19.05;52.81;101445.91;5075183;28;20907;-68
2022/07/10 10:50:01;;;;;;;7.40;1.00;;;;;;;19.28;52.15;101438.91;5075336;28;20461;-66
2022/07/10 10:52:28;;;;;;;1.27;0.67;;;;;;;19.33;52.33;101443.38;5074787;28;20488;-67
2022/07/10 10:55:04;;;;;;;7.13;0.67;;;;;;;19.32;52.33;101437.06;5075079;28;20539;-67
2022/07/10 10:57:45;;;;;;;0.60;0.40;;;;;;;19.46;51.39;101444.22;5075025;28;20425;-65
2022/07/10 11:00:15;;;;;;;4.40;0.67;;;;;;;19.23;51.75;101438.31;5075344;28;20461;-63
2022/07/10 11:02:43;;;;;;;4.63;0.70;;;;;;;19.31;51.39;101438.22;5074686;28;20768;-67
2022/07/10 11:05:43;;;;;;;1.00;0.60;;;;;;;19.37;52.00;101458.84;5074861;28;20520;-64
2022/07/10 11:08:10;;;;;;;4.50;1.03;;;;;;;19.42;51.70;101444.09;5074307;28;20575;-67
2022/07/10 11:10:39;;;;;;;5.30;0.90;;;;;;;19.31;52.53;101446.47;5074458;28;20911;-67
2022/07/10 11:13:07;;;;;;;1.20;0.53;;;;;;;19.28;53.63;101443.59;5074636;28;20536;-67
2022/07/10 11:15:36;;;;;;;0.97;0.70;;;;;;;19.31;51.97;101443.72;5074354;28;20456;-67
2022/07/10 11:18:08;;;;;;;3.77;0.87;;;;;;;19.35;51.51;101452.91;5074779;28;20461;-68
2022/07/10 11:20:36;;;;;;;2.77;0.67;;;;;;;19.25;51.70;101460.75;5074663;28;20447;-66
2022/07/10 11:23:44;;;;;;;1.27;0.57;;;;;;;19.36;52.52;101454.50;5074234;28;20450;-67
2022/07/10 11:26:16;;;;;;;1.90;0.60;;;;;;;19.50;50.85;101445.94;5051454;28;20453;-68
2022/07/10 11:28:50;;;;;;;2.97;0.97;;;;;;;19.71;51.29;101445.91;5073975;28;20492;-67
2022/07/10 11:31:17;;;;;;;3.80;0.70;;;;;;;19.99;52.15;101440.50;5074004;28;21048;-68
2022/07/10 11:33:46;;;;;;;1.83;0.83;;;;;;;20.10;48.28;101444.44;5074238;28;20433;-67
2022/07/10 11:36:14;;;;;;;1.40;0.70;;;;;;;20.25;49.73;101444.88;5073871;28;20476;-68
2022/07/10 11:38:43;;;;;;;0.90;0.50;;;;;;;20.17;48.36;101441.09;5074166;28;20514;-65